Time,TemperatureF,DewpointF,PressureIn,WindDirection,WindDirectionDegrees,WindSpeedMPH,WindSpeedGustMPH,Humidity,HourlyPrecipIn,Conditions,Clouds,dailyrainin,SolarRadiationWatts/m^2,SoftwareType,DateUTC
2013-04-13 00:02:00,32.2,32.2,29.78,SSW,209,0.0,0.0,100,0.00,-SN,OVC,0.00,0.0,WeatherDisplay:10.37,2013-04-13 05:02:00,
2013-04-13 00:07:00,32.2,32.2,29.78,SSW,199,0.0,0.0,100,0.00,-SN,OVC,0.00,0.0,WeatherDisplay:10.37,2013-04-13 05:07:00,
2013-04-13 00:12:00,32.2,32.2,29.78,SW,226,0.0,0.0,100,0.00,-SN,OVC,0.00,0.0,WeatherDisplay:10.37,2013-04-13 05:12:00,
2013-04-13 00:17:00,32.2,32.2,29.78,WSW,239,0.0,0.0,100,0.00,-SN,OVC,0.00,0.0,WeatherDisplay:10.37,2013-04-13 05:17:00,
2013-04-13 00:22:00,32.2,32.2,29.78,SW,226,0.0,0.0,100,0.00,-SN,OVC,0.00,0.0,WeatherDisplay:10.37,2013-04-13 05:22:00,
2013-04-13 00:27:00,32.2,32.2,29.78,SSW,193,0.0,0.0,100,0.00,-SN,OVC,0.00,0.0,WeatherDisplay:10.37,2013-04-13 05:27:00,
2013-04-13 00:32:00,32.2,32.2,29.78,SSW,212,0.0,0.0,100,0.00,-SN,OVC,0.00,0.0,WeatherDisplay:10.37,2013-04-13 05:32:00,
2013-04-13 00:37:00,32.2,32.2,29.78,SW,229,0.0,0.0,100,0.00,-SN,OVC,0.00,0.0,WeatherDisplay:10.37,2013-04-13 05:37:00,
2013-04-13 00:42:00,32.2,32.2,29.78,SW,224,0.0,0.0,100,0.00,-SN,OVC,0.00,0.0,WeatherDisplay:10.37,2013-04-13 05:42:00,
2013-04-13 00:47:00,32.0,32.0,29.78,SSW,194,0.0,0.0,100,0.00,-SN,OVC,0.00,0.0,WeatherDisplay:10.37,2013-04-13 05:47:00,
2013-04-13 00:52:00,32.0,32.0,29.78,SW,220,0.0,0.0,100,0.00,-SN,OVC,0.00,0.0,WeatherDisplay:10.37,2013-04-13 05:52:00,
2013-04-13 00:57:00,31.8,31.8,29.78,SW,214,0.0,0.0,100,0.00,-SN,OVC,0.00,0.0,WeatherDisplay:10.37,2013-04-13 05:57:00,
2013-04-13 01:02:00,31.8,31.8,29.78,SW,229,0.0,0.0,100,0.00,-SN,OVC,0.00,0.0,WeatherDisplay:10.37,2013-04-13 06:02:00,
2013-04-13 01:07:00,31.8,31.8,29.78,SW,228,0.0,0.0,100,0.00,-SN,OVC,0.00,0.0,WeatherDisplay:10.37,2013-04-13 06:07:00,
2013-04-13 01:12:00,31.8,31.8,29.78,SW,229,0.0,0.0,100,0.00,-SN,OVC,0.00,0.0,WeatherDisplay:10.37,2013-04-13 06:12:00,
2013-04-13 01:18:00,31.6,31.6,29.78,WSW,239,0.0,0.0,100,0.00,-SN,OVC,0.00,0.0,WeatherDisplay:10.37,2013-04-13 06:18:00,
2013-04-13 01:23:00,31.6,31.6,29.78,SW,220,0.0,0.0,100,0.00,-SN,OVC,0.00,0.0,WeatherDisplay:10.37,2013-04-13 06:23:00,
2013-04-13 01:28:00,31.6,31.6,29.78,West,262,0.0,0.0,100,0.00,-SN,OVC,0.00,0.0,WeatherDisplay:10.37,2013-04-13 06:28:00,
2013-04-13 01:33:00,31.5,31.5,29.78,WSW,244,0.0,0.0,100,0.00,-SN,OVC,0.00,0.0,WeatherDisplay:10.37,2013-04-13 06:33:00,
2013-04-13 01:38:00,31.5,31.5,29.78,WSW,244,0.0,0.0,100,0.00,-SN,OVC,0.00,0.0,WeatherDisplay:10.37,2013-04-13 06:38:00,
2013-04-13 01:44:00,31.5,31.5,29.78,WSW,244,0.0,0.0,100,0.00,-SN,OVC,0.00,0.0,WeatherDisplay:10.37,2013-04-13 06:44:00,
2013-04-13 01:49:00,31.3,31.3,29.78,SSW,211,0.0,0.0,100,0.00,-SN,OVC,0.00,0.0,WeatherDisplay:10.37,2013-04-13 06:49:00,
2013-04-13 01:55:00,31.3,31.3,29.78,WNW,283,0.0,0.0,100,0.00,-SN,OVC,0.00,0.0,WeatherDisplay:10.37,2013-04-13 06:55:00,
2013-04-13 02:00:00,31.3,31.3,29.78,SW,236,0.0,0.0,100,0.00,-SN,OVC,0.00,0.0,WeatherDisplay:10.37,2013-04-13 07:00:00,
2013-04-13 02:05:00,31.3,31.3,29.78,SW,236,0.0,0.0,100,0.00,-SN,OVC,0.00,0.0,WeatherDisplay:10.37,2013-04-13 07:05:00,
2013-04-13 02:10:00,31.3,31.3,29.78,SW,236,0.0,0.0,100,0.00,-SN,OVC,0.00,0.0,WeatherDisplay:10.37,2013-04-13 07:10:00,
2013-04-13 02:15:00,31.5,31.5,29.78,SW,236,0.0,0.0,100,0.00,-SN,OVC,0.00,0.0,WeatherDisplay:10.37,2013-04-13 07:15:00,
2013-04-13 02:20:00,31.5,31.5,29.78,SW,236,0.0,0.0,100,0.00,-SN,OVC,0.00,0.0,WeatherDisplay:10.37,2013-04-13 07:20:00,
2013-04-13 02:25:00,31.3,31.3,29.75,SW,236,0.0,0.0,100,0.00,-SN,OVC,0.00,0.0,WeatherDisplay:10.37,2013-04-13 07:25:00,
2013-04-13 02:30:00,31.3,31.3,29.75,SW,236,0.0,0.0,100,0.00,-SN,OVC,0.00,0.0,WeatherDisplay:10.37,2013-04-13 07:30:00,
2013-04-13 02:35:00,31.3,31.3,29.75,SW,236,0.0,0.0,100,0.00,-SN,OVC,0.00,0.0,WeatherDisplay:10.37,2013-04-13 07:35:00,
2013-04-13 02:40:00,31.3,31.3,29.75,SW,236,0.0,0.0,100,0.00,-SN,OVC,0.00,0.0,WeatherDisplay:10.37,2013-04-13 07:40:00,
2013-04-13 02:46:00,31.3,31.3,29.75,SW,236,0.0,0.0,100,0.00,-SN,OVC,0.00,0.0,WeatherDisplay:10.37,2013-04-13 07:46:00,
2013-04-13 02:51:00,31.3,31.3,29.75,SW,236,0.0,0.0,100,0.00,-SN,OVC,0.00,0.0,WeatherDisplay:10.37,2013-04-13 07:51:00,
2013-04-13 02:56:00,31.3,31.3,29.75,WSW,256,0.0,0.0,100,0.00,-SN,OVC,0.00,0.0,WeatherDisplay:10.37,2013-04-13 07:56:00,
2013-04-13 03:01:00,31.1,31.1,29.75,NW,309,0.0,0.0,100,0.00,-SN,OVC,0.00,0.0,WeatherDisplay:10.37,2013-04-13 08:01:00,
2013-04-13 03:06:00,30.9,30.9,29.75,SW,215,0.0,0.0,100,0.00,-SN,OVC,0.00,0.0,WeatherDisplay:10.37,2013-04-13 08:06:00,
2013-04-13 03:11:00,30.6,30.6,29.78,WNW,297,0.0,0.0,100,0.00,-SN,OVC,0.00,0.0,WeatherDisplay:10.37,2013-04-13 08:11:00,
2013-04-13 03:16:00,30.4,30.4,29.78,NW,306,0.0,0.0,100,0.00,-SN,OVC,0.00,0.0,WeatherDisplay:10.37,2013-04-13 08:16:00,
2013-04-13 03:22:00,30.2,30.2,29.78,WSW,254,0.0,0.0,100,0.00,-SN,OVC,0.00,0.0,WeatherDisplay:10.37,2013-04-13 08:22:00,
2013-04-13 03:27:00,30.0,30.0,29.78,NW,318,0.0,0.0,100,0.00,-SN,OVC,0.00,0.0,WeatherDisplay:10.37,2013-04-13 08:27:00,
2013-04-13 03:32:00,30.0,30.0,29.78,WSW,251,0.0,0.0,100,0.00,-SN,OVC,0.00,0.0,WeatherDisplay:10.37,2013-04-13 08:32:00,
2013-04-13 03:37:00,29.8,29.8,29.78,WSW,251,0.0,0.0,100,0.00,-SN,OVC,0.00,0.0,WeatherDisplay:10.37,2013-04-13 08:37:00,
2013-04-13 03:44:00,29.8,29.8,29.78,NW,318,0.0,0.0,100,0.00,-SN,OVC,0.00,0.0,WeatherDisplay:10.37,2013-04-13 08:44:00,
2013-04-13 03:49:00,29.7,29.7,29.78,NW,318,0.0,0.0,100,0.00,-SN,OVC,0.00,0.0,WeatherDisplay:10.37,2013-04-13 08:49:00,
2013-04-13 03:54:00,29.7,29.7,29.78,West,262,0.0,0.0,100,0.00,-SN,OVC,0.00,0.0,WeatherDisplay:10.37,2013-04-13 08:54:00,
2013-04-13 03:59:00,29.7,29.7,29.78,NW,305,0.0,0.0,100,0.00,-SN,OVC,0.00,0.0,WeatherDisplay:10.37,2013-04-13 08:59:00,
2013-04-13 04:04:00,29.7,29.7,29.78,WNW,287,0.0,0.0,100,0.00,-SN,OVC,0.00,0.0,WeatherDisplay:10.37,2013-04-13 09:04:00,
2013-04-13 04:09:00,29.5,29.5,29.78,West,275,0.0,0.0,100,0.00,-SN,OVC,0.00,0.0,WeatherDisplay:10.37,2013-04-13 09:09:00,
2013-04-13 04:14:00,29.5,29.5,29.78,West,275,0.0,0.0,100,0.00,-SN,OVC,0.00,0.0,WeatherDisplay:10.37,2013-04-13 09:14:00,
2013-04-13 04:19:00,29.5,29.5,29.78,WNW,289,0.0,0.0,100,0.00,-SN,OVC,0.00,0.0,WeatherDisplay:10.37,2013-04-13 09:19:00,
2013-04-13 04:24:00,29.5,29.5,29.78,SSW,208,0.0,0.0,100,0.00,-SN,OVC,0.00,0.0,WeatherDisplay:10.37,2013-04-13 09:24:00,
2013-04-13 04:29:00,29.3,29.3,29.78,West,279,0.0,0.0,100,0.00,-SN,OVC,0.00,0.0,WeatherDisplay:10.37,2013-04-13 09:29:00,
2013-04-13 04:34:00,29.3,29.3,29.78,NW,307,0.0,0.0,100,0.00,-SN,OVC,0.00,0.0,WeatherDisplay:10.37,2013-04-13 09:34:00,
2013-04-13 04:39:00,29.1,29.1,29.78,NW,307,0.0,0.0,100,0.00,-SN,OVC,0.00,0.0,WeatherDisplay:10.37,2013-04-13 09:39:00,
2013-04-13 04:44:00,29.1,29.1,29.78,North,353,0.0,0.0,100,0.00,-SN,OVC,0.00,0.0,WeatherDisplay:10.37,2013-04-13 09:44:00,
2013-04-13 04:50:00,29.1,29.1,29.78,NW,322,0.0,0.0,100,0.00,-SN,OVC,0.00,0.0,WeatherDisplay:10.37,2013-04-13 09:50:00,
2013-04-13 04:55:00,29.1,29.1,29.78,NW,322,0.0,0.0,100,0.00,-SN,OVC,0.00,0.0,WeatherDisplay:10.37,2013-04-13 09:55:00,
2013-04-13 05:00:00,29.1,29.1,29.78,West,273,0.0,0.0,100,0.00,-SN,OVC,0.00,0.0,WeatherDisplay:10.37,2013-04-13 10:00:00,
2013-04-13 05:05:00,28.9,28.9,29.78,WNW,297,0.0,0.0,100,0.00,-SN,OVC,0.00,0.0,WeatherDisplay:10.37,2013-04-13 10:05:00,
2013-04-13 05:10:00,28.8,28.8,29.78,WSW,243,0.0,0.0,100,0.00,-SN,OVC,0.00,0.0,WeatherDisplay:10.37,2013-04-13 10:10:00,
2013-04-13 05:15:00,28.8,28.8,29.78,WSW,249,0.0,0.0,100,0.00,-SN,OVC,0.00,0.0,WeatherDisplay:10.37,2013-04-13 10:15:00,
2013-04-13 05:20:00,28.6,28.6,29.78,West,276,0.0,0.0,100,0.00,-SN,OVC,0.00,0.0,WeatherDisplay:10.37,2013-04-13 10:20:00,
2013-04-13 05:26:00,28.6,28.6,29.78,NW,306,0.0,0.0,100,0.00,OVC,,0.00,0.0,WeatherDisplay:10.37,2013-04-13 10:26:00,
2013-04-13 05:32:00,28.4,28.4,29.78,WNW,284,0.0,0.0,100,0.00,OVC,,0.00,0.0,WeatherDisplay:10.37,2013-04-13 10:32:00,
2013-04-13 05:37:00,28.2,28.2,29.78,WNW,292,0.0,0.0,100,0.00,OVC,,0.00,0.0,WeatherDisplay:10.37,2013-04-13 10:37:00,
2013-04-13 05:42:00,28.0,28.0,29.78,WNW,292,0.0,0.0,100,0.00,OVC,,0.00,0.0,WeatherDisplay:10.37,2013-04-13 10:42:00,
2013-04-13 05:48:00,28.0,28.0,29.78,NW,309,0.0,0.0,100,0.00,OVC,,0.00,0.0,WeatherDisplay:10.37,2013-04-13 10:48:00,
2013-04-13 05:53:00,27.9,27.9,29.78,WNW,292,0.0,0.0,100,0.00,OVC,,0.00,0.0,WeatherDisplay:10.37,2013-04-13 10:53:00,
2013-04-13 05:58:00,27.9,27.9,29.78,NW,314,0.0,0.0,100,0.00,OVC,,0.00,0.0,WeatherDisplay:10.37,2013-04-13 10:58:00,
2013-04-13 06:04:00,27.7,27.7,29.78,West,277,0.0,0.0,100,0.00,OVC,,0.00,2.1,WeatherDisplay:10.37,2013-04-13 11:04:00,
2013-04-13 06:09:00,27.5,27.5,29.78,NW,316,0.0,0.0,100,0.00,OVC,,0.00,2.6,WeatherDisplay:10.37,2013-04-13 11:09:00,
2013-04-13 06:14:00,27.3,27.3,29.81,West,268,0.0,0.0,100,0.00,OVC,,0.00,3.1,WeatherDisplay:10.37,2013-04-13 11:14:00,
2013-04-13 06:19:00,27.1,27.1,29.81,NW,310,0.0,0.0,100,0.00,OVC,,0.00,3.6,WeatherDisplay:10.37,2013-04-13 11:19:00,
2013-04-13 06:24:00,27.0,27.0,29.81,WNW,284,0.0,0.0,100,0.00,OVC,,0.00,4.1,WeatherDisplay:10.37,2013-04-13 11:24:00,
2013-04-13 06:30:00,27.0,26.7,29.81,WSW,247,0.0,0.0,99,0.00,OVC,,0.00,4.6,WeatherDisplay:10.37,2013-04-13 11:30:00,
2013-04-13 06:35:00,26.8,26.5,29.81,West,263,0.0,0.0,99,0.00,OVC,,0.00,5.2,WeatherDisplay:10.37,2013-04-13 11:35:00,
2013-04-13 06:40:00,26.8,26.5,29.81,WNW,300,0.0,0.0,99,0.00,OVC,,0.00,5.6,WeatherDisplay:10.37,2013-04-13 11:40:00,
2013-04-13 06:46:00,27.0,26.7,29.81,West,263,0.0,0.0,99,0.00,OVC,,0.00,6.1,WeatherDisplay:10.37,2013-04-13 11:46:00,
2013-04-13 06:51:00,27.0,26.7,29.81,NW,306,0.0,0.0,99,0.00,OVC,,0.00,6.4,WeatherDisplay:10.37,2013-04-13 11:51:00,
2013-04-13 06:56:00,27.0,26.5,29.81,WNW,294,0.0,0.0,98,0.00,OVC,,0.00,6.8,WeatherDisplay:10.37,2013-04-13 11:56:00,
2013-04-13 07:01:00,27.0,26.5,29.81,WNW,300,0.0,0.0,98,0.00,OVC,,0.00,7.3,WeatherDisplay:10.37,2013-04-13 12:01:00,
2013-04-13 07:06:00,27.0,26.2,29.81,NW,324,0.0,0.0,97,0.00,OVC,,0.00,7.8,WeatherDisplay:10.37,2013-04-13 12:06:00,
2013-04-13 07:11:00,27.0,26.0,29.81,NW,316,0.0,0.0,96,0.00,OVC,,0.00,8.3,WeatherDisplay:10.37,2013-04-13 12:11:00,
2013-04-13 07:17:00,27.1,25.6,29.81,WSW,255,0.0,0.0,94,0.00,OVC,,0.00,8.8,WeatherDisplay:10.37,2013-04-13 12:17:00,
2013-04-13 07:22:00,27.1,25.6,29.81,NNW,328,0.0,0.0,94,0.00,OVC,,0.00,9.0,WeatherDisplay:10.37,2013-04-13 12:22:00,
2013-04-13 07:27:00,27.1,25.1,29.81,WNW,303,0.0,0.0,92,0.00,OVC,,0.00,9.4,WeatherDisplay:10.37,2013-04-13 12:27:00,
2013-04-13 07:33:00,27.3,25.0,29.81,WNW,300,0.0,0.0,91,0.00,OVC,,0.00,9.5,WeatherDisplay:10.37,2013-04-13 12:33:00,
2013-04-13 07:38:00,27.3,25.0,29.81,WNW,300,0.0,0.0,91,0.00,OVC,,0.00,10.0,WeatherDisplay:10.37,2013-04-13 12:38:00,
2013-04-13 07:43:00,27.3,24.5,29.84,WNW,294,0.0,0.0,89,0.00,OVC,,0.00,10.4,WeatherDisplay:10.37,2013-04-13 12:43:00,
2013-04-13 07:48:00,27.3,24.2,29.84,WNW,291,0.0,0.0,88,0.00,OVC,,0.00,10.8,WeatherDisplay:10.37,2013-04-13 12:48:00,
2013-04-13 07:53:00,27.3,23.7,29.84,NW,314,0.0,0.0,86,0.00,OVC,,0.00,11.3,WeatherDisplay:10.37,2013-04-13 12:53:00,
2013-04-13 07:58:00,27.3,23.7,29.84,NW,309,0.0,0.0,86,0.00,OVC,,0.00,11.8,WeatherDisplay:10.37,2013-04-13 12:58:00,
2013-04-13 08:03:00,27.5,23.6,29.84,WNW,282,0.0,0.0,85,0.00,BKN,OVC,0.00,11.8,WeatherDisplay:10.37,2013-04-13 13:03:00,
2013-04-13 08:09:00,27.7,23.5,29.84,NW,318,0.0,0.0,84,0.00,BKN,OVC,0.00,11.7,WeatherDisplay:10.37,2013-04-13 13:09:00,
2013-04-13 08:14:00,28.0,23.8,29.84,WNW,295,0.0,0.0,84,0.00,BKN,OVC,0.00,11.7,WeatherDisplay:10.37,2013-04-13 13:14:00,
2013-04-13 08:19:00,28.0,23.3,29.84,NW,316,0.0,0.0,82,0.00,BKN,OVC,0.00,11.1,WeatherDisplay:10.37,2013-04-13 13:19:00,
2013-04-13 08:25:00,28.2,23.4,29.84,WNW,294,0.0,0.0,82,0.00,BKN,OVC,0.00,11.5,WeatherDisplay:10.37,2013-04-13 13:25:00,
2013-04-13 08:30:00,28.2,23.1,29.84,NW,325,0.0,0.0,81,0.00,BKN,OVC,0.02,11.9,WeatherDisplay:10.37,2013-04-13 13:30:00,
2013-04-13 08:35:00,28.4,23.0,29.84,West,278,0.0,0.0,80,0.02,RA,OVC,0.02,11.7,WeatherDisplay:10.37,2013-04-13 13:35:00,
2013-04-13 08:40:00,28.4,22.7,29.84,WNW,303,0.0,0.0,79,0.02,RA,OVC,0.02,12.0,WeatherDisplay:10.37,2013-04-13 13:40:00,
2013-04-13 08:45:00,28.6,23.2,29.84,NW,307,0.0,0.0,80,0.02,BKN,OVC,0.02,11.7,WeatherDisplay:10.37,2013-04-13 13:45:00,
2013-04-13 08:50:00,28.6,22.9,29.84,NW,309,0.0,0.0,79,0.02,BKN,OVC,0.02,12.0,WeatherDisplay:10.37,2013-04-13 13:50:00,
2013-04-13 08:55:00,28.8,22.5,29.84,NW,311,0.0,0.0,77,0.02,BKN,OVC,0.02,11.7,WeatherDisplay:10.37,2013-04-13 13:55:00,
2013-04-13 09:00:00,28.9,22.6,29.84,WNW,303,0.0,0.0,77,0.02,BKN,OVC,0.02,11.3,WeatherDisplay:10.37,2013-04-13 14:00:00,
2013-04-13 09:05:00,29.3,22.7,29.84,WNW,301,0.0,0.0,76,0.02,FEW,OVC,0.02,10.3,WeatherDisplay:10.37,2013-04-13 14:05:00,
2013-04-13 09:10:00,30.0,23.4,29.84,WNW,297,0.0,0.0,76,0.02,FEW,OVC,0.02,8.4,WeatherDisplay:10.37,2013-04-13 14:10:00,
2013-04-13 09:15:00,30.0,22.7,29.84,NW,304,0.0,0.0,74,0.02,FEW,OVC,0.02,7.9,WeatherDisplay:10.37,2013-04-13 14:15:00,
2013-04-13 09:22:00,30.2,23.2,29.84,West,263,0.0,0.0,75,0.02,FEW,OVC,0.02,7.4,WeatherDisplay:10.37,2013-04-13 14:22:00,
2013-04-13 09:28:00,30.2,22.9,29.81,WSW,237,0.0,0.0,74,0.02,FEW,OVC,0.02,6.8,WeatherDisplay:10.37,2013-04-13 14:28:00,
2013-04-13 09:33:00,30.6,22.9,29.81,WSW,252,0.0,0.0,73,0.00,BKN,OVC,0.02,6.2,WeatherDisplay:10.37,2013-04-13 14:33:00,
2013-04-13 09:38:00,30.6,22.6,29.81,WNW,287,0.0,0.0,72,0.00,BKN,OVC,0.02,6.3,WeatherDisplay:10.37,2013-04-13 14:38:00,
2013-04-13 09:44:00,30.7,22.8,29.84,WNW,293,0.0,0.0,72,0.00,BKN,OVC,0.02,5.6,WeatherDisplay:10.37,2013-04-13 14:44:00,
2013-04-13 09:49:00,31.1,23.5,29.84,West,263,0.0,0.0,73,0.00,BKN,OVC,0.02,4.1,WeatherDisplay:10.37,2013-04-13 14:49:00,
2013-04-13 09:54:00,31.3,23.0,29.84,NW,318,0.0,0.0,71,0.00,BKN,OVC,0.02,3.3,WeatherDisplay:10.37,2013-04-13 14:54:00,
2013-04-13 09:59:00,31.3,23.0,29.84,West,276,0.0,0.0,71,0.00,BKN,OVC,0.02,3.4,WeatherDisplay:10.37,2013-04-13 14:59:00,
2013-04-13 10:05:00,31.8,23.1,29.84,NW,305,0.0,0.0,70,0.00,BKN,OVC,0.02,1.7,WeatherDisplay:10.37,2013-04-13 15:05:00,
2013-04-13 10:11:00,31.8,22.8,29.84,NW,306,0.0,0.0,69,0.00,BKN,OVC,0.02,0.9,WeatherDisplay:10.37,2013-04-13 15:11:00,
2013-04-13 10:17:00,32.2,22.8,29.84,WNW,294,2.3,2.3,68,0.00,BKN,OVC,0.02,0.0,WeatherDisplay:10.37,2013-04-13 15:17:00,
2013-04-13 10:22:00,32.4,23.0,29.84,NW,320,5.8,5.8,68,0.00,BKN,OVC,0.02,0.0,WeatherDisplay:10.37,2013-04-13 15:22:00,
2013-04-13 10:28:00,32.7,23.3,29.81,SSW,213,4.6,4.6,68,0.00,BKN,OVC,0.02,0.0,WeatherDisplay:10.37,2013-04-13 15:28:00,
2013-04-13 10:33:00,33.1,23.7,29.81,WNW,289,3.5,4.0,68,0.00,BKN,OVC,0.02,0.0,WeatherDisplay:10.37,2013-04-13 15:33:00,
2013-04-13 10:38:00,33.4,23.7,29.81,WNW,294,5.8,5.8,67,0.00,BKN,OVC,0.02,0.0,WeatherDisplay:10.37,2013-04-13 15:38:00,
2013-04-13 10:43:00,33.4,23.3,29.84,WNW,298,5.8,5.8,66,0.00,BKN,OVC,0.02,0.0,WeatherDisplay:10.37,2013-04-13 15:43:00,
2013-04-13 10:48:00,33.3,23.5,29.84,West,259,5.8,5.8,67,0.00,BKN,OVC,0.02,0.0,WeatherDisplay:10.37,2013-04-13 15:48:00,
2013-04-13 10:53:00,33.6,23.5,29.84,NNW,344,5.8,5.8,66,0.00,BKN,OVC,0.02,0.0,WeatherDisplay:10.37,2013-04-13 15:53:00,
2013-04-13 10:58:00,33.3,23.1,29.84,WNW,284,5.8,5.8,66,0.00,BKN,OVC,0.02,0.0,WeatherDisplay:10.37,2013-04-13 15:58:00,
2013-04-13 11:03:00,33.4,23.3,29.84,WNW,292,5.8,5.8,66,0.00,OVC,,0.02,0.0,WeatherDisplay:10.37,2013-04-13 16:03:00,
2013-04-13 11:08:00,33.6,23.5,29.84,NW,305,5.8,5.8,66,0.00,OVC,,0.02,0.0,WeatherDisplay:10.37,2013-04-13 16:08:00,
2013-04-13 11:13:00,33.6,23.5,29.81,NW,312,4.6,4.6,66,0.00,OVC,,0.02,0.0,WeatherDisplay:10.37,2013-04-13 16:13:00,
2013-04-13 11:19:00,33.6,23.5,29.81,NW,312,5.8,5.8,66,0.00,OVC,,0.02,0.0,WeatherDisplay:10.37,2013-04-13 16:19:00,
2013-04-13 11:25:00,34.0,23.8,29.81,WNW,291,3.5,3.5,66,0.00,OVC,,0.02,0.0,WeatherDisplay:10.37,2013-04-13 16:25:00,
2013-04-13 11:30:00,34.3,24.2,29.84,WSW,244,4.6,4.6,66,0.00,OVC,,0.02,0.0,WeatherDisplay:10.37,2013-04-13 16:30:00,
2013-04-13 11:35:00,34.5,24.3,29.84,NW,312,5.8,5.8,66,0.00,OVC,,0.02,0.0,WeatherDisplay:10.37,2013-04-13 16:35:00,
2013-04-13 11:39:00,34.7,24.5,29.84,WNW,293,3.5,3.5,66,0.00,OVC,,0.02,0.0,WeatherDisplay:10.37,2013-04-13 16:39:00,
2013-04-13 11:44:00,34.9,24.7,29.84,NW,308,3.5,3.5,66,0.00,OVC,,0.02,0.0,WeatherDisplay:10.37,2013-04-13 16:44:00,
2013-04-13 11:49:00,34.9,24.3,29.84,NW,307,5.8,5.8,65,0.00,OVC,,0.02,0.0,WeatherDisplay:10.37,2013-04-13 16:49:00,
2013-04-13 11:54:00,34.5,24.0,29.84,WNW,292,3.5,3.6,65,0.00,OVC,,0.02,0.0,WeatherDisplay:10.37,2013-04-13 16:54:00,
2013-04-13 12:02:00,34.9,24.3,29.84,West,269,3.5,3.5,65,0.00,OVC,,0.02,0.0,WeatherDisplay:10.37,2013-04-13 17:02:00,
2013-04-13 12:07:00,35.1,24.5,29.84,NW,320,5.8,5.8,65,0.00,OVC,,0.02,0.0,WeatherDisplay:10.37,2013-04-13 17:07:00,
2013-04-13 12:13:00,35.1,24.5,29.84,WNW,283,5.8,5.8,65,0.00,OVC,,0.02,0.0,WeatherDisplay:10.37,2013-04-13 17:13:00,
2013-04-13 12:18:00,35.2,24.6,29.84,NW,311,8.1,8.1,65,0.00,OVC,,0.02,0.0,WeatherDisplay:10.37,2013-04-13 17:18:00,
2013-04-13 12:23:00,35.1,24.1,29.84,NNW,331,3.5,3.5,64,0.00,OVC,,0.02,0.0,WeatherDisplay:10.37,2013-04-13 17:23:00,
2013-04-13 12:29:00,35.2,24.6,29.84,West,267,3.5,3.5,65,0.00,OVC,,0.02,0.0,WeatherDisplay:10.37,2013-04-13 17:29:00,
2013-04-13 12:34:00,35.2,24.6,29.84,WNW,297,3.5,3.5,65,0.00,OVC,,0.02,0.0,WeatherDisplay:10.37,2013-04-13 17:34:00,
2013-04-13 12:39:00,35.4,24.4,29.84,WSW,242,5.8,5.8,64,0.00,OVC,,0.02,0.0,WeatherDisplay:10.37,2013-04-13 17:39:00,
2013-04-13 12:44:00,35.6,23.9,29.84,West,278,3.5,3.6,62,0.00,OVC,,0.02,0.0,WeatherDisplay:10.37,2013-04-13 17:44:00,
2013-04-13 12:49:00,35.2,24.3,29.84,WNW,290,3.5,0.0,64,0.00,OVC,,0.02,0.0,WeatherDisplay:10.37,2013-04-13 17:49:00,
2013-04-13 12:54:00,35.1,23.7,29.84,WNW,291,5.8,5.8,63,0.00,OVC,,0.02,0.0,WeatherDisplay:10.37,2013-04-13 17:54:00,
2013-04-13 12:59:00,34.9,24.3,29.84,West,273,2.3,0.0,65,0.00,OVC,,0.02,0.0,WeatherDisplay:10.37,2013-04-13 17:59:00,
2013-04-13 13:05:00,34.9,24.3,29.84,WSW,246,3.5,0.0,65,0.00,-SN,OVC,0.02,0.0,WeatherDisplay:10.37,2013-04-13 18:05:00,
2013-04-13 13:10:00,34.9,24.3,29.84,WNW,287,5.8,5.8,65,0.00,-SN,OVC,0.02,0.0,WeatherDisplay:10.37,2013-04-13 18:10:00,
2013-04-13 13:15:00,35.2,24.6,29.84,WNW,283,5.8,5.8,65,0.00,-SN,OVC,0.02,0.0,WeatherDisplay:10.37,2013-04-13 18:15:00,
2013-04-13 13:20:00,35.6,25.0,29.84,SW,233,3.5,4.5,65,0.00,-SN,OVC,0.02,0.0,WeatherDisplay:10.37,2013-04-13 18:20:00,
2013-04-13 13:25:00,35.6,25.0,29.84,SW,229,5.8,5.8,65,0.00,-SN,OVC,0.02,0.0,WeatherDisplay:10.37,2013-04-13 18:25:00,
2013-04-13 13:27:00,35.6,25.0,29.84,WSW,254,5.8,5.8,65,0.00,-SN,OVC,0.02,0.0,WeatherDisplay:10.37,2013-04-13 18:27:00,
2013-04-13 13:32:00,35.2,24.6,29.84,SW,236,8.1,8.1,65,0.00,-SN,OVC,0.02,0.0,WeatherDisplay:10.37,2013-04-13 18:32:00,
2013-04-13 13:37:00,35.1,24.8,29.84,NW,320,2.3,0.0,66,0.00,-SN,OVC,0.02,0.0,WeatherDisplay:10.37,2013-04-13 18:37:00,
2013-04-13 13:42:00,34.7,24.9,29.87,WNW,293,4.6,0.0,67,0.00,-SN,OVC,0.02,0.0,WeatherDisplay:10.37,2013-04-13 18:42:00,
2013-04-13 13:47:00,34.9,25.0,29.87,WSW,253,0.0,0.0,67,0.00,-SN,OVC,0.02,0.0,WeatherDisplay:10.37,2013-04-13 18:47:00,
2013-04-13 13:52:00,35.1,25.2,29.87,SW,221,3.5,0.0,67,0.00,-SN,OVC,0.02,0.0,WeatherDisplay:10.37,2013-04-13 18:52:00,
2013-04-13 13:57:00,35.4,25.9,29.87,WSW,252,4.9,4.9,68,0.00,-SN,OVC,0.02,0.0,WeatherDisplay:10.37,2013-04-13 18:57:00,
2013-04-13 14:02:00,35.1,26.6,29.87,NW,325,3.5,3.5,71,0.00,OVC,,0.02,0.0,WeatherDisplay:10.37,2013-04-13 19:02:00,
2013-04-13 14:07:00,34.3,27.6,29.87,WNW,289,2.3,0.0,76,0.00,OVC,,0.02,0.0,WeatherDisplay:10.37,2013-04-13 19:07:00,
2013-04-13 14:12:00,34.0,27.2,29.87,WSW,238,0.0,0.0,76,0.00,OVC,,0.02,0.0,WeatherDisplay:10.37,2013-04-13 19:12:00,
2013-04-13 14:17:00,34.5,28.4,29.87,NW,316,2.3,0.0,78,0.00,OVC,,0.02,0.0,WeatherDisplay:10.37,2013-04-13 19:17:00,
2013-04-13 14:22:00,34.7,28.5,29.87,NW,312,3.5,0.0,78,0.00,-SN,OVC,0.02,0.0,WeatherDisplay:10.37,2013-04-13 19:22:00,
2013-04-13 14:27:00,34.9,28.7,29.87,NW,310,3.5,3.5,78,0.00,-SN,OVC,0.02,0.0,WeatherDisplay:10.37,2013-04-13 19:27:00,
2013-04-13 14:32:00,34.5,28.4,29.87,NW,308,3.5,0.0,78,0.00,-SN,OVC,0.02,0.0,WeatherDisplay:10.37,2013-04-13 19:32:00,
2013-04-13 14:38:00,34.5,28.7,29.87,North,353,2.3,0.0,79,0.00,-SN,OVC,0.02,0.0,WeatherDisplay:10.37,2013-04-13 19:38:00,
2013-04-13 14:43:00,34.5,28.1,29.87,West,274,2.3,0.0,77,0.00,-SN,OVC,0.02,0.0,WeatherDisplay:10.37,2013-04-13 19:43:00,
2013-04-13 14:48:00,34.5,28.4,29.87,NW,312,3.5,0.0,78,0.00,-SN,OVC,0.02,0.0,WeatherDisplay:10.37,2013-04-13 19:48:00,
2013-04-13 14:53:00,34.5,28.4,29.87,WNW,301,3.5,0.0,78,0.00,-SN,OVC,0.02,0.0,WeatherDisplay:10.37,2013-04-13 19:53:00,
2013-04-13 14:58:00,34.7,29.2,29.87,WSW,255,2.3,2.3,80,0.00,-SN,OVC,0.02,0.0,WeatherDisplay:10.37,2013-04-13 19:58:00,
2013-04-13 15:03:00,34.5,28.7,29.87,SW,231,3.5,3.5,79,0.00,-SN,OVC,0.02,0.0,WeatherDisplay:10.37,2013-04-13 20:03:00,
2013-04-13 15:08:00,34.3,28.5,29.87,WNW,294,3.5,0.0,79,0.00,-SN,OVC,0.02,0.0,WeatherDisplay:10.37,2013-04-13 20:08:00,
2013-04-13 15:14:00,34.3,29.1,29.87,WSW,248,0.0,0.0,81,0.00,-SN,OVC,0.02,0.0,WeatherDisplay:10.37,2013-04-13 20:14:00,
2013-04-13 15:19:00,34.5,30.2,29.87,North,349,2.3,2.3,84,0.00,-SN,OVC,0.02,0.0,WeatherDisplay:10.37,2013-04-13 20:19:00,
2013-04-13 15:24:00,34.7,30.7,29.87,SW,227,2.3,0.0,85,0.00,-SN,OVC,0.02,0.0,WeatherDisplay:10.37,2013-04-13 20:24:00,
2013-04-13 15:29:00,34.5,30.5,29.87,SSW,208,3.5,0.0,85,0.00,-SN,OVC,0.02,0.0,WeatherDisplay:10.37,2013-04-13 20:29:00,
2013-04-13 15:34:00,34.7,30.7,29.87,SW,233,3.5,0.0,85,0.00,-SN,OVC,0.02,0.0,WeatherDisplay:10.37,2013-04-13 20:34:00,
2013-04-13 15:39:00,34.3,29.7,29.87,SW,229,2.3,0.0,83,0.00,-SN,OVC,0.02,0.0,WeatherDisplay:10.37,2013-04-13 20:39:00,
2013-04-13 15:44:00,34.3,30.3,29.87,SW,229,0.0,0.0,85,0.00,-SN,OVC,0.02,0.0,WeatherDisplay:10.37,2013-04-13 20:44:00,
2013-04-13 15:49:00,34.0,30.5,29.87,WNW,295,2.3,0.0,87,0.00,-SN,OVC,0.02,0.0,WeatherDisplay:10.37,2013-04-13 20:49:00,
2013-04-13 15:54:00,33.6,30.4,29.87,NW,310,3.5,3.5,88,0.00,-SN,OVC,0.02,0.0,WeatherDisplay:10.37,2013-04-13 20:54:00,
2013-04-13 15:59:00,33.1,29.9,29.87,North,353,2.3,0.0,88,0.00,-SN,OVC,0.02,0.0,WeatherDisplay:10.37,2013-04-13 20:59:00,
2013-04-13 16:04:00,32.7,29.8,29.87,WNW,287,3.5,0.0,89,0.00,-SN,OVC,0.02,0.0,WeatherDisplay:10.37,2013-04-13 21:04:00,
2013-04-13 16:09:00,32.7,30.1,29.87,WNW,301,3.5,3.5,90,0.00,-SN,OVC,0.02,0.0,WeatherDisplay:10.37,2013-04-13 21:09:00,
2013-04-13 16:14:00,32.7,30.4,29.87,NW,323,0.0,0.0,91,0.00,-SN,OVC,0.02,0.0,WeatherDisplay:10.37,2013-04-13 21:14:00,
2013-04-13 16:19:00,32.9,30.8,29.87,West,274,0.0,0.0,92,0.00,-SN,OVC,0.02,0.0,WeatherDisplay:10.37,2013-04-13 21:19:00,
2013-04-13 16:24:00,33.3,31.5,29.87,West,272,0.0,0.0,93,0.00,-SN,OVC,0.02,0.0,WeatherDisplay:10.37,2013-04-13 21:24:00,
2013-04-13 16:29:00,33.4,31.9,29.87,WSW,239,2.3,0.0,94,0.00,-SN,OVC,0.02,0.0,WeatherDisplay:10.37,2013-04-13 21:29:00,
2013-04-13 16:34:00,33.8,32.0,29.87,SW,215,2.3,0.0,93,0.00,-SN,OVC,0.02,0.0,WeatherDisplay:10.37,2013-04-13 21:34:00,
2013-04-13 16:39:00,34.3,32.3,29.87,WSW,251,5.8,5.8,92,0.00,-SN,OVC,0.02,0.0,WeatherDisplay:10.37,2013-04-13 21:39:00,
2013-04-13 16:44:00,34.3,30.0,29.87,WSW,245,2.3,0.0,84,0.00,OVC,,0.02,0.0,WeatherDisplay:10.37,2013-04-13 21:44:00,
2013-04-13 16:49:00,34.7,30.4,29.87,NW,313,2.3,0.0,84,0.00,OVC,,0.02,0.0,WeatherDisplay:10.37,2013-04-13 21:49:00,
2013-04-13 16:54:00,35.2,30.3,29.87,SSW,207,6.9,6.9,82,0.00,OVC,,0.02,0.0,WeatherDisplay:10.37,2013-04-13 21:54:00,
2013-04-13 16:59:00,35.6,29.1,29.87,NW,323,3.5,0.0,77,0.00,OVC,,0.02,0.0,WeatherDisplay:10.37,2013-04-13 21:59:00,
2013-04-13 17:04:00,35.2,28.4,29.87,NW,313,2.3,2.3,76,0.00,-SN,OVC,0.02,0.0,WeatherDisplay:10.37,2013-04-13 22:04:00,
2013-04-13 17:09:00,34.9,28.4,29.87,NNW,332,3.5,3.5,77,0.00,-SN,OVC,0.02,0.0,WeatherDisplay:10.37,2013-04-13 22:09:00,
2013-04-13 17:14:00,34.7,28.2,29.90,WNW,285,4.6,4.6,77,0.00,-SN,OVC,0.02,0.0,WeatherDisplay:10.37,2013-04-13 22:14:00,
2013-04-13 17:19:00,33.8,27.7,29.90,NW,314,5.8,5.8,78,0.00,-SN,OVC,0.02,0.0,WeatherDisplay:10.37,2013-04-13 22:19:00,
2013-04-13 17:24:00,33.3,27.8,29.90,NW,316,3.5,0.0,80,0.00,-SN,OVC,0.02,0.0,WeatherDisplay:10.37,2013-04-13 22:24:00,
2013-04-13 17:29:00,33.1,27.9,29.90,WNW,298,3.5,3.5,81,0.00,-SN,OVC,0.02,0.0,WeatherDisplay:10.37,2013-04-13 22:29:00,
2013-04-13 17:34:00,33.1,27.6,29.90,NW,316,2.3,0.0,80,0.00,-SN,OVC,0.02,0.0,WeatherDisplay:10.37,2013-04-13 22:34:00,
2013-04-13 17:39:00,33.1,27.9,29.90,NNW,337,0.0,0.0,81,0.00,-SN,OVC,0.02,0.0,WeatherDisplay:10.37,2013-04-13 22:39:00,
2013-04-13 17:43:00,33.1,27.3,29.90,NNW,332,0.0,0.0,79,0.00,-SN,OVC,0.02,0.0,WeatherDisplay:10.37,2013-04-13 22:43:00,
2013-04-13 17:49:00,33.3,27.5,29.90,NW,313,2.3,0.0,79,0.00,-SN,OVC,0.02,0.0,WeatherDisplay:10.37,2013-04-13 22:49:00,
2013-04-13 17:53:00,33.3,27.5,29.90,NW,312,2.3,0.0,79,0.00,-SN,OVC,0.02,0.0,WeatherDisplay:10.37,2013-04-13 22:53:00,
2013-04-13 17:58:00,33.4,27.0,29.90,NW,311,2.3,0.0,77,0.00,-SN,OVC,0.02,0.0,WeatherDisplay:10.37,2013-04-13 22:58:00,
2013-04-13 18:03:00,33.6,27.2,29.90,West,279,0.0,0.0,77,0.00,OVC,,0.02,0.0,WeatherDisplay:10.37,2013-04-13 23:03:00,
2013-04-13 18:08:00,33.6,27.5,29.90,NW,318,2.3,0.0,78,0.00,OVC,,0.02,0.0,WeatherDisplay:10.37,2013-04-13 23:08:00,
2013-04-13 18:13:00,33.6,27.2,29.90,NW,318,2.3,0.0,77,0.00,OVC,,0.02,0.0,WeatherDisplay:10.37,2013-04-13 23:13:00,
2013-04-13 18:18:00,33.6,27.2,29.90,NW,313,3.5,0.0,77,0.00,OVC,,0.02,0.0,WeatherDisplay:10.37,2013-04-13 23:18:00,
2013-04-13 18:23:00,33.8,27.4,29.90,NNW,331,2.3,0.0,77,0.00,OVC,,0.02,0.0,WeatherDisplay:10.37,2013-04-13 23:23:00,
2013-04-13 18:28:00,34.0,26.9,29.90,WNW,303,3.5,3.5,75,0.00,OVC,,0.02,0.0,WeatherDisplay:10.37,2013-04-13 23:28:00,
2013-04-13 18:33:00,34.0,26.6,29.90,NW,306,3.5,3.5,74,0.00,-SN,OVC,0.02,0.0,WeatherDisplay:10.37,2013-04-13 23:33:00,
2013-04-13 18:38:00,33.8,26.4,29.90,NW,317,2.3,0.0,74,0.00,-SN,OVC,0.02,0.0,WeatherDisplay:10.37,2013-04-13 23:38:00,
2013-04-13 18:43:00,33.4,26.4,29.93,WNW,300,3.5,0.0,75,0.00,-SN,OVC,0.02,0.0,WeatherDisplay:10.37,2013-04-13 23:43:00,
2013-04-13 18:48:00,33.3,26.5,29.93,West,260,0.0,0.0,76,0.00,-SN,OVC,0.02,0.0,WeatherDisplay:10.37,2013-04-13 23:48:00,
2013-04-13 18:53:00,33.1,26.7,29.93,NNW,329,2.3,0.0,77,0.00,OVC,,0.02,0.0,WeatherDisplay:10.37,2013-04-13 23:53:00,
2013-04-13 18:58:00,33.1,27.0,29.93,NW,312,2.3,0.0,78,0.00,OVC,,0.02,0.0,WeatherDisplay:10.37,2013-04-13 23:58:00,
2013-04-13 19:03:00,32.9,26.5,29.93,WSW,254,0.0,0.0,77,0.00,OVC,,0.02,0.0,WeatherDisplay:10.37,2013-04-14 00:03:00,
2013-04-13 19:08:00,32.9,26.5,29.93,NW,307,2.3,0.0,77,0.00,OVC,,0.02,0.0,WeatherDisplay:10.37,2013-04-14 00:08:00,
2013-04-13 19:13:00,32.9,26.2,29.93,NW,309,0.0,0.0,76,0.00,OVC,,0.02,0.0,WeatherDisplay:10.37,2013-04-14 00:13:00,
2013-04-13 19:18:00,32.9,25.8,29.93,West,261,0.0,0.0,75,0.00,OVC,,0.02,0.0,WeatherDisplay:10.37,2013-04-14 00:18:00,
2013-04-13 19:23:00,32.7,25.7,29.93,WNW,293,3.5,0.0,75,0.00,OVC,,0.02,0.0,WeatherDisplay:10.37,2013-04-14 00:23:00,
2013-04-13 19:28:00,32.7,25.7,29.93,WNW,293,0.0,0.0,75,0.00,OVC,,0.02,0.0,WeatherDisplay:10.37,2013-04-14 00:28:00,
2013-04-13 19:33:00,32.7,25.7,29.93,WNW,301,0.0,0.0,75,0.00,OVC,,0.02,0.0,WeatherDisplay:10.37,2013-04-14 00:33:00,
2013-04-13 19:38:00,32.7,25.7,29.93,WNW,301,0.0,0.0,75,0.00,OVC,,0.02,0.0,WeatherDisplay:10.37,2013-04-14 00:38:00,
2013-04-13 19:43:00,32.5,25.2,29.93,NW,305,0.0,0.0,74,0.00,OVC,,0.02,0.0,WeatherDisplay:10.37,2013-04-14 00:43:00,
2013-04-13 19:48:00,32.5,25.5,29.93,NW,315,0.0,0.0,75,0.00,OVC,,0.02,0.0,WeatherDisplay:10.37,2013-04-14 00:48:00,
2013-04-13 19:53:00,32.5,25.5,29.93,NW,315,0.0,0.0,75,0.00,OVC,,0.02,0.0,WeatherDisplay:10.37,2013-04-14 00:53:00,
2013-04-13 19:58:00,32.5,25.5,29.93,NW,315,0.0,0.0,75,0.00,OVC,,0.02,0.0,WeatherDisplay:10.37,2013-04-14 00:58:00,
2013-04-13 20:04:00,32.4,25.3,29.93,NW,324,2.3,0.0,75,0.00,OVC,,0.02,0.0,WeatherDisplay:10.37,2013-04-14 01:04:00,
2013-04-13 20:09:00,32.4,25.3,29.93,NW,320,0.0,0.0,75,0.00,OVC,,0.02,0.0,WeatherDisplay:10.37,2013-04-14 01:09:00,
2013-04-13 20:14:00,32.2,25.1,29.96,NW,320,0.0,0.0,75,0.00,OVC,,0.02,0.0,WeatherDisplay:10.37,2013-04-14 01:14:00,
2013-04-13 20:19:00,31.8,24.8,29.96,NW,320,0.0,0.0,75,0.00,OVC,,0.02,0.0,WeatherDisplay:10.37,2013-04-14 01:19:00,
2013-04-13 20:24:00,31.5,24.4,29.96,NW,320,0.0,0.0,75,0.00,OVC,,0.02,0.0,WeatherDisplay:10.37,2013-04-14 01:24:00,
2013-04-13 20:29:00,31.3,24.3,29.96,NW,320,0.0,0.0,75,0.00,OVC,,0.02,0.0,WeatherDisplay:10.37,2013-04-14 01:29:00,
2013-04-13 20:34:00,30.9,24.2,29.96,NW,320,0.0,0.0,76,0.00,OVC,,0.02,0.0,WeatherDisplay:10.37,2013-04-14 01:34:00,
2013-04-13 20:39:00,30.7,24.1,29.96,NW,320,0.0,0.0,76,0.00,OVC,,0.02,0.0,WeatherDisplay:10.37,2013-04-14 01:39:00,
2013-04-13 20:44:00,30.7,24.1,29.96,NW,320,0.0,0.0,76,0.00,OVC,,0.02,0.0,WeatherDisplay:10.37,2013-04-14 01:44:00,
2013-04-13 20:49:00,30.6,23.9,29.96,NW,320,0.0,0.0,76,0.00,OVC,,0.02,0.0,WeatherDisplay:10.37,2013-04-14 01:49:00,
2013-04-13 20:54:00,30.7,24.1,29.96,NW,320,0.0,0.0,76,0.00,OVC,,0.02,0.0,WeatherDisplay:10.37,2013-04-14 01:54:00,
2013-04-13 20:59:00,30.7,24.1,29.96,NW,320,0.0,0.0,76,0.00,OVC,,0.02,0.0,WeatherDisplay:10.37,2013-04-14 01:59:00,
2013-04-13 21:04:00,30.7,24.4,29.96,NW,320,0.0,0.0,77,0.00,OVC,,0.02,0.0,WeatherDisplay:10.37,2013-04-14 02:04:00,
2013-04-13 21:09:00,30.7,24.4,29.96,NW,320,0.0,0.0,77,0.00,OVC,,0.02,0.0,WeatherDisplay:10.37,2013-04-14 02:09:00,
2013-04-13 21:14:00,30.7,24.4,29.96,NW,320,0.0,0.0,77,0.00,OVC,,0.02,0.0,WeatherDisplay:10.37,2013-04-14 02:14:00,
2013-04-13 21:19:00,30.7,24.4,29.96,NW,320,0.0,0.0,77,0.00,OVC,,0.02,0.0,WeatherDisplay:10.37,2013-04-14 02:19:00,
2013-04-13 21:24:00,30.7,24.4,29.96,NW,320,0.0,0.0,77,0.00,OVC,,0.02,0.0,WeatherDisplay:10.37,2013-04-14 02:24:00,
2013-04-13 21:29:00,30.9,24.6,29.96,NW,320,0.0,0.0,77,0.00,OVC,,0.02,0.0,WeatherDisplay:10.37,2013-04-14 02:29:00,
2013-04-13 21:34:00,30.9,24.6,29.96,NW,320,0.0,0.0,77,0.00,OVC,,0.02,0.0,WeatherDisplay:10.37,2013-04-14 02:34:00,
2013-04-13 21:39:00,31.1,24.4,29.96,NW,320,0.0,0.0,76,0.00,OVC,,0.02,0.0,WeatherDisplay:10.37,2013-04-14 02:39:00,
2013-04-13 21:44:00,31.1,24.4,29.96,NW,320,0.0,0.0,76,0.00,OVC,,0.02,0.0,WeatherDisplay:10.37,2013-04-14 02:44:00,
2013-04-13 21:49:00,31.1,24.4,29.96,SW,230,2.3,0.0,76,0.00,OVC,,0.02,0.0,WeatherDisplay:10.37,2013-04-14 02:49:00,
2013-04-13 21:54:00,31.1,24.4,29.96,SW,230,0.0,0.0,76,0.00,OVC,,0.02,0.0,WeatherDisplay:10.37,2013-04-14 02:54:00,
2013-04-13 21:59:00,31.1,24.4,29.99,SW,230,0.0,0.0,76,0.00,OVC,,0.02,0.0,WeatherDisplay:10.37,2013-04-14 02:59:00,
2013-04-13 22:04:00,31.1,24.4,29.99,SW,230,0.0,0.0,76,0.00,OVC,,0.02,0.0,WeatherDisplay:10.37,2013-04-14 03:04:00,
2013-04-13 22:09:00,31.1,24.4,29.99,SW,230,0.0,0.0,76,0.00,OVC,,0.02,0.0,WeatherDisplay:10.37,2013-04-14 03:09:00,
2013-04-13 22:14:00,31.1,24.4,29.99,SW,229,0.0,0.0,76,0.00,OVC,,0.02,0.0,WeatherDisplay:10.37,2013-04-14 03:14:00,
2013-04-13 22:19:00,31.1,24.4,29.99,SW,230,0.0,0.0,76,0.00,OVC,,0.02,0.0,WeatherDisplay:10.37,2013-04-14 03:19:00,
2013-04-13 22:24:00,31.1,24.1,29.99,SW,230,0.0,0.0,75,0.00,OVC,,0.02,0.0,WeatherDisplay:10.37,2013-04-14 03:24:00,
2013-04-13 22:29:00,31.1,24.1,29.99,SW,229,0.0,0.0,75,0.00,OVC,,0.02,0.0,WeatherDisplay:10.37,2013-04-14 03:29:00,
2013-04-13 22:34:00,30.7,23.8,29.99,SW,230,0.0,0.0,75,0.00,OVC,,0.02,0.0,WeatherDisplay:10.37,2013-04-14 03:34:00,
2013-04-13 22:39:00,30.4,23.4,29.99,SW,230,0.0,0.0,75,0.00,OVC,,0.02,0.0,WeatherDisplay:10.37,2013-04-14 03:39:00,
2013-04-13 22:44:00,29.8,23.2,29.99,SW,230,0.0,0.0,76,0.00,OVC,,0.02,0.0,WeatherDisplay:10.37,2013-04-14 03:44:00,
2013-04-13 22:49:00,29.5,22.8,29.99,SW,230,0.0,0.0,76,0.00,OVC,,0.02,0.0,WeatherDisplay:10.37,2013-04-14 03:49:00,
2013-04-13 22:54:00,28.9,22.3,29.99,SW,230,0.0,0.0,76,0.00,OVC,,0.02,0.0,WeatherDisplay:10.37,2013-04-14 03:54:00,
2013-04-13 22:59:00,28.6,22.0,29.99,SW,230,0.0,0.0,76,0.00,OVC,,0.02,0.0,WeatherDisplay:10.37,2013-04-14 03:59:00,
2013-04-13 23:00:00,28.6,22.0,29.99,SW,230,0.0,0.0,76,0.00,OVC,,0.02,0.0,WeatherDisplay:10.37,2013-04-14 04:00:00,
2013-04-13 23:05:00,28.2,21.9,29.99,SW,230,0.0,0.0,77,0.00,OVC,,0.02,0.0,WeatherDisplay:10.37,2013-04-14 04:05:00,
2013-04-13 23:10:00,28.0,22.1,29.99,SW,230,0.0,0.0,78,0.00,OVC,,0.02,0.0,WeatherDisplay:10.37,2013-04-14 04:10:00,
2013-04-13 23:15:00,27.7,21.7,29.99,SW,230,0.0,0.0,78,0.00,OVC,,0.02,0.0,WeatherDisplay:10.37,2013-04-14 04:15:00,
2013-04-13 23:20:00,27.5,21.5,29.99,SW,229,0.0,0.0,78,0.00,OVC,,0.02,0.0,WeatherDisplay:10.37,2013-04-14 04:20:00,
2013-04-13 23:25:00,27.1,21.5,29.99,SW,230,0.0,0.0,79,0.00,OVC,,0.02,0.0,WeatherDisplay:10.37,2013-04-14 04:25:00,
2013-04-13 23:30:00,27.0,21.3,30.02,SW,230,0.0,0.0,79,0.00,OVC,,0.02,0.0,WeatherDisplay:10.37,2013-04-14 04:30:00,
2013-04-13 23:35:00,26.6,21.3,30.02,SW,230,0.0,0.0,80,0.00,OVC,,0.02,0.0,WeatherDisplay:10.37,2013-04-14 04:35:00,
2013-04-13 23:40:00,26.2,20.9,30.02,SW,230,0.0,0.0,80,0.00,OVC,,0.02,0.0,WeatherDisplay:10.37,2013-04-14 04:40:00,
2013-04-13 23:45:00,26.1,21.0,30.02,SW,230,0.0,0.0,81,0.00,OVC,,0.02,0.0,WeatherDisplay:10.37,2013-04-14 04:45:00,
2013-04-13 23:50:00,25.7,20.7,30.02,SW,230,0.0,0.0,81,0.00,OVC,,0.02,0.0,WeatherDisplay:10.37,2013-04-14 04:50:00,
2013-04-13 23:55:00,25.3,20.3,30.02,SW,229,0.0,0.0,81,0.00,OVC,,0.02,0.0,WeatherDisplay:10.37,2013-04-14 04:55:00,